Latest Weather Observations for Busselton Airport

IDW60801

Issued at 5:05 pm WST Friday 24 October 2014 (issued every 30 minutes, with the page automatically refreshed every 10 minutes)

About weather observations | Map of weather stations | Latest weather observations for WA | Other Formats
Station Details ID: 009603 Name: BUSSELTON AERO Lat: -33.69 Lon: 115.40 Height: 16.3 m
Data from the previous 72 hours. | See also: Recent months at Busselton Airport
Date/Time
WST
Temp
°C
App
Temp
°C
Dew
Point
Rel
Hum
%
Delta-T
°C
Wind Press
QNH
hPa
Press
MSL
hPa
Rain
since 9 am
mm
Dir
 
Spd
km/h
Gust
km/h
Spd
kts
Gust
kts
24/05:00pm 19.1 16.2 10.9 59 4.4 NNW 17 20 9 11 1015.4 1015.4 0.0
24/04:30pm 20.4 18.0 11.3 56 5.0 NNW 15 19 8 10 1015.5 1015.5 0.0
24/04:00pm 20.7 17.7 10.8 53 5.4 NNW 17 22 9 12 1015.4 1015.4 0.0
24/03:30pm 20.7 18.1 10.8 53 5.4 N 15 20 8 11 1015.3 1015.3 0.0
24/03:00pm 21.2 18.3 11.0 52 5.6 NNW 17 20 9 11 1015.5 1015.5 0.0
24/02:30pm 20.5 17.4 10.3 52 5.5 NNW 17 20 9 11 1015.6 1015.6 0.0
24/02:00pm 20.5 17.3 10.0 51 5.6 N 17 22 9 12 1015.8 1015.8 0.0
24/01:30pm 21.2 18.5 10.4 50 5.9 NNW 15 22 8 12 1016.1 1016.1 0.0
24/01:00pm 20.5 17.4 10.3 52 5.5 NNW 17 26 9 14 1016.7 1016.7 0.0
24/12:30pm 20.1 16.6 10.2 53 5.3 N 19 24 10 13 1016.9 1016.9 0.0
24/12:00pm 20.0 17.0 10.7 55 5.0 N 17 26 9 14 1016.9 1016.9 0.0
24/11:30am 20.6 18.2 12.6 60 4.5 N 17 22 9 12 1017.2 1017.2 0.0
24/11:00am 19.4 17.3 12.4 64 3.9 NNW 15 24 8 13 1017.6 1017.6 0.0
24/10:30am 19.3 17.0 11.6 61 4.2 NNW 15 24 8 13 1017.9 1017.9 0.0
24/10:00am 18.6 16.5 11.2 62 4.0 N 13 19 7 10 1018.0 1018.0 0.0
24/09:30am 17.5 15.2 11.8 69 3.1 NE 15 20 8 11 1018.1 1018.1 0.0
24/09:00am 17.1 14.8 11.8 71 2.9 ENE 15 20 8 11 1018.3 1018.3 -
24/08:30am 15.6 13.6 11.4 76 2.3 ENE 13 19 7 10 1018.4 1018.4 -
24/08:00am 14.2 12.9 11.2 82 1.6 ENE 9 13 5 7 1018.8 1018.8 -
24/07:30am 13.7 11.2 11.2 85 1.3 NE 15 19 8 10 1018.2 1018.2 -
24/07:00am 13.1 11.5 11.7 91 0.7 NE 11 13 6 7 1018.1 1018.1 -
24/06:30am 12.8 13.5 12.2 96 0.3 ENE 0 6 0 3 1018.0 1018.0 -
24/06:00am 12.3 11.6 11.4 94 0.5 SE 6 7 3 4 1017.8 1017.8 -
24/05:30am 12.1 11.8 11.5 96 0.3 SE 4 7 2 4 1017.8 1017.8 -
24/05:00am 12.3 12.5 11.7 96 0.3 SE 2 7 1 4 1017.4 1017.4 -
24/04:30am 11.8 10.4 10.9 94 0.5 ESE 9 11 5 6 1017.4 1017.4 -
24/04:00am 12.4 11.5 11.3 93 0.6 E 7 9 4 5 1017.5 1017.5 -
24/03:30am 12.9 12.1 11.6 92 0.7 SSE 7 9 4 5 1017.7 1017.7 -
24/03:00am 13.6 12.6 12.2 91 0.8 SSE 9 11 5 6 1018.0 1018.0 0.0
24/02:30am 13.6 12.2 12.2 91 0.8 SE 11 15 6 8 1018.1 1018.1 -
24/02:00am 13.5 12.5 12.4 93 0.6 SE 9 11 5 6 1018.2 1018.2 -
24/01:30am 13.5 12.5 12.2 92 0.7 SSE 9 13 5 7 1018.4 1018.4 -
24/01:00am 13.7 12.4 12.6 93 0.6 SE 11 11 6 6 1018.2 1018.2 -
24/12:30am 13.9 13.4 12.6 92 0.7 S 7 9 4 5 1018.5 1018.5 -
24/12:00am 13.5 12.5 12.2 92 0.7 S 9 9 5 5 1018.5 1018.5 -
 
Date/Time
WST
Temp
°C
App
Temp
°C
Dew
Point
Rel
Hum
%
Delta-T
°C
Wind Press
QNH
hPa
Press
MSL
hPa
Rain
since 9 am
mm
Dir
 
Spd
km/h
Gust
km/h
Spd
kts
Gust
kts
23/11:30pm 13.6 11.4 12.2 91 0.8 SSE 15 20 8 11 1018.3 1018.3 -
23/11:00pm 12.9 11.9 12.4 97 0.3 S 9 11 5 6 1018.4 1018.4 -
23/10:30pm 13.3 12.7 12.2 93 0.6 SSW 7 9 4 5 1018.4 1018.4 -
23/10:00pm 12.8 11.1 11.2 90 0.8 SSW 11 13 6 7 1018.5 1018.5 -
23/09:30pm 13.6 12.8 11.8 89 1.0 S 7 9 4 5 1018.6 1018.6 -
23/09:00pm 14.6 13.9 11.9 84 1.5 SW 7 9 4 5 1018.8 1018.8 0.0
23/08:30pm 14.2 13.1 11.9 86 1.2 SSW 9 11 5 6 1018.5 1018.5 -
23/08:00pm 14.2 12.6 11.4 83 1.5 S 11 15 6 8 1018.4 1018.4 -
23/07:30pm 15.3 13.3 11.5 78 2.0 SSW 13 17 7 9 1017.9 1017.9 -
23/07:00pm 16.6 14.2 11.5 72 2.8 SSW 15 19 8 10 1017.6 1017.6 -
23/06:30pm 17.8 14.4 11.4 66 3.5 SSW 20 24 11 13 1017.2 1017.2 -
23/06:00pm 19.1 16.3 11.2 60 4.3 SSW 17 24 9 13 1016.7 1016.7 -
23/05:30pm 19.5 17.0 11.0 58 4.6 SSW 15 19 8 10 1016.4 1016.4 -
23/05:00pm 19.6 17.3 10.6 56 4.9 S 13 19 7 10 1016.2 1016.2 -
23/04:30pm 20.8 17.8 10.6 52 5.6 SSW 17 30 9 16 1016.1 1016.1 -
23/04:00pm 20.9 16.9 10.4 51 5.7 SSW 22 35 12 19 1016.0 1016.0 -
23/03:30pm 21.3 17.3 10.5 50 5.9 S 22 30 12 16 1015.9 1015.9 -
23/03:00pm 20.7 - 10.2 51 5.7 - - - - - 1015.7 1015.7 -
23/12:00pm 21.6 16.8 10.4 49 6.1 SW 26 37 14 20 1014.9 1014.9 0.2
23/11:30am 21.1 16.9 12.3 57 5.0 SSW 26 37 14 20 1015.0 1015.0 0.0
23/11:00am 21.0 17.2 12.4 58 4.8 WSW 24 33 13 18 1014.9 1014.9 0.0
23/10:30am 20.0 15.4 12.3 61 4.3 SW 28 35 15 19 1014.8 1014.8 0.0
23/10:00am 20.3 17.5 14.2 68 3.5 SW 22 32 12 17 1014.5 1014.5 0.0
23/09:30am 18.4 16.6 15.5 83 1.7 SW 19 24 10 13 1014.4 1014.4 0.0
23/09:00am 16.7 15.9 15.1 90 0.9 W 13 19 7 10 1014.1 1014.1 0.2
23/08:30am 16.4 14.7 14.8 90 0.9 W 17 28 9 15 1013.8 1013.8 0.2
23/08:00am 16.8 14.4 14.3 85 1.4 W 20 32 11 17 1013.4 1013.4 0.0
23/07:30am 17.9 15.5 13.8 77 2.3 W 19 24 10 13 1012.9 1012.9 0.0
23/07:00am 17.2 15.9 13.7 80 2.0 WNW 13 17 7 9 1012.6 1012.6 0.0
23/06:30am 16.7 15.3 13.4 81 1.9 WNW 13 19 7 10 1012.4 1012.4 0.0
23/06:00am 16.1 14.5 12.9 81 1.8 WNW 13 17 7 9 1012.0 1012.0 0.0
23/05:30am 16.4 14.1 13.0 80 1.9 W 17 22 9 12 1011.8 1011.8 0.0
23/05:00am 15.9 14.7 12.7 81 1.8 WNW 11 17 6 9 1011.6 1011.6 0.0
23/04:30am 15.4 14.1 12.5 83 1.6 WNW 11 15 6 8 1011.6 1011.6 0.0
23/04:00am 15.2 14.0 12.7 85 1.4 WNW 11 15 6 8 1011.4 1011.4 0.0
23/03:30am 14.6 13.3 12.5 87 1.1 WNW 11 15 6 8 1011.2 1011.2 0.0
23/03:00am 14.8 13.6 12.7 87 1.2 WNW 11 13 6 7 1011.1 1011.1 0.0
23/02:30am 15.0 13.8 12.9 87 1.2 WNW 11 15 6 8 1011.4 1011.4 0.0
23/02:00am 15.2 13.7 13.2 88 1.1 NW 13 15 7 8 1011.7 1011.7 0.0
23/01:30am 15.4 14.2 14.1 92 0.7 WNW 13 19 7 10 1012.1 1012.1 0.0
23/01:00am 12.1 10.6 10.4 89 0.9 NNE 9 11 5 6 1011.6 1011.6 0.0
23/12:30am 11.7 9.9 9.5 86 1.1 NE 9 11 5 6 1012.0 1012.0 0.0
23/12:00am 14.8 14.7 12.0 83 1.5 NW 4 6 2 3 1012.4 1012.4 0.0
 
Date/Time
WST
Temp
°C
App
Temp
°C
Dew
Point
Rel
Hum
%
Delta-T
°C
Wind Press
QNH
hPa
Press
MSL
hPa
Rain
since 9 am
mm
Dir
 
Spd
km/h
Gust
km/h
Spd
kts
Gust
kts
22/11:30pm 14.9 13.7 11.5 80 1.8 WNW 9 13 5 7 1012.7 1012.7 0.0
22/11:00pm 16.1 14.7 12.1 77 2.2 W 11 13 6 7 1012.8 1012.8 0.0
22/10:30pm 16.5 14.5 12.7 78 2.1 WNW 15 19 8 10 1013.1 1013.1 0.0
22/10:00pm 16.8 15.0 13.2 79 2.0 WNW 15 20 8 11 1013.0 1013.0 0.0
22/09:30pm 17.2 16.0 14.1 82 1.8 WNW 13 20 7 11 1013.0 1013.0 0.0
22/09:00pm 16.1 15.1 13.4 84 1.5 NW 11 15 6 8 1012.8 1012.8 0.0
22/08:30pm 17.1 16.9 13.7 80 1.9 WNW 7 9 4 5 1012.5 1012.5 0.0
22/08:00pm 18.3 17.3 14.6 79 2.1 WNW 13 19 7 10 1012.1 1012.1 0.0
22/07:30pm 18.7 18.0 14.4 76 2.5 W 11 15 6 8 1012.0 1012.0 0.0
22/07:00pm 19.2 17.7 14.1 72 2.9 W 15 24 8 13 1011.7 1011.7 0.0
22/06:30pm 19.7 18.8 13.7 68 3.4 W 11 17 6 9 1011.4 1011.4 0.0
22/06:00pm 20.5 18.5 14.0 66 3.8 W 17 22 9 12 1010.8 1010.8 0.0
22/05:30pm 22.1 19.8 14.2 61 4.6 W 19 26 10 14 1010.5 1010.5 0.0
22/05:00pm 22.9 20.3 13.1 54 5.7 W 19 28 10 15 1009.8 1009.8 0.0
22/04:30pm 23.2 20.3 14.0 56 5.4 NW 22 30 12 16 1009.1 1009.1 0.0
22/04:00pm 23.9 19.1 10.2 42 7.6 WNW 26 39 14 21 1009.0 1009.0 0.0
22/03:30pm 23.9 19.8 11.6 46 6.9 NW 24 33 13 18 1009.5 1009.5 0.0
22/03:00pm 23.6 18.5 13.2 52 6.0 NW 32 41 17 22 1010.1 1010.1 0.0
22/02:48pm 25.2 19.4 13.8 49 6.7 NW 37 46 20 25 1010.0 1010.0 0.0
22/02:30pm 27.2 24.4 14.3 45 7.7 N 22 32 12 17 1009.9 1009.9 0.0
22/02:00pm 26.9 24.5 14.3 46 7.5 N 20 26 11 14 1010.3 1010.3 0.0
22/01:30pm 27.3 25.0 14.0 44 7.9 N 19 24 10 13 1010.5 1010.5 0.0
22/01:00pm 28.7 25.6 13.4 39 9.1 E 22 32 12 17 1010.8 1010.8 0.0
22/12:30pm 28.8 25.5 13.9 40 8.9 E 24 33 13 18 1011.1 1011.1 0.0
22/12:00pm 27.9 23.7 13.4 40 8.6 E 28 35 15 19 1011.7 1011.7 0.0
22/11:30am 26.1 22.3 13.6 46 7.4 ENE 26 33 14 18 1012.2 1012.2 0.0
22/11:00am 25.5 22.2 14.0 49 6.8 ENE 24 32 13 17 1013.0 1013.0 0.0
22/10:30am 24.9 21.4 13.5 49 6.7 ENE 24 32 13 17 1013.7 1013.7 0.0
22/10:00am 23.6 20.4 13.2 52 6.0 ENE 22 32 12 17 1014.6 1014.6 0.0
22/09:30am 22.8 18.7 12.7 53 5.8 ENE 26 37 14 20 1015.2 1015.2 0.0
22/09:00am 21.0 18.0 12.5 58 4.8 E 20 28 11 15 1015.5 1015.5 0.2
22/08:30am 20.3 16.8 12.3 60 4.5 E 22 30 12 16 1015.8 1015.8 0.2
22/08:00am 18.8 15.7 11.6 63 4.0 E 19 24 10 13 1015.9 1015.9 0.2
22/07:30am 17.7 15.9 12.0 69 3.1 E 13 19 7 10 1016.0 1016.0 0.2
22/07:00am 16.3 13.3 10.8 70 2.9 E 17 28 9 15 1016.0 1016.0 0.2
22/06:30am 14.9 12.7 10.7 76 2.2 E 13 17 7 9 1015.9 1015.9 0.2
22/06:00am 13.6 9.6 10.3 80 1.7 E 22 28 12 15 1015.8 1015.8 0.2
22/05:30am 13.3 9.1 9.8 79 1.8 E 22 28 12 15 1015.6 1015.6 0.2
22/05:00am 13.4 9.2 9.7 78 1.9 E 22 30 12 16 1015.7 1015.7 0.2
22/04:30am 13.4 8.8 9.7 78 1.9 E 24 28 13 15 1015.8 1015.8 0.2
22/04:00am 13.3 7.9 9.4 77 2.0 E 28 37 15 20 1016.1 1016.1 0.2
22/03:30am 13.4 7.9 9.3 76 2.1 E 28 37 15 20 1016.4 1016.4 0.2
22/03:00am 13.3 7.8 9.2 76 2.1 E 28 35 15 19 1016.6 1016.6 0.2
22/02:30am 13.4 7.9 9.3 76 2.1 E 28 37 15 20 1016.9 1016.9 0.2
22/02:00am 13.5 8.0 9.0 74 2.3 E 28 35 15 19 1017.5 1017.5 0.2
22/01:30am 13.7 8.2 9.0 73 2.4 E 28 35 15 19 1017.9 1017.9 0.2
22/01:00am 13.9 9.1 8.8 71 2.6 E 24 33 13 18 1018.2 1018.2 0.2
22/12:30am 14.3 9.9 8.9 70 2.7 ESE 22 30 12 16 1018.6 1018.6 0.2
22/12:00am 14.1 10.1 8.9 71 2.6 ESE 20 28 11 15 1018.8 1018.8 0.2
 
Date/Time
WST
Temp
°C
App
Temp
°C
Dew
Point
Rel
Hum
%
Delta-T
°C
Wind Press
QNH
hPa
Press
MSL
hPa
Rain
since 9 am
mm
Dir
 
Spd
km/h
Gust
km/h
Spd
kts
Gust
kts
21/11:30pm 14.3 10.4 8.7 69 2.8 ESE 19 24 10 13 1018.9 1018.9 0.2
21/11:00pm 14.8 10.8 9.0 68 3.0 ESE 20 30 11 16 1018.7 1018.7 0.2
21/10:30pm 14.0 11.0 9.3 73 2.4 SE 15 19 8 10 1019.1 1019.1 0.2
21/10:00pm 14.1 11.7 8.7 70 2.7 SE 11 17 6 9 1019.6 1019.6 0.2
21/09:30pm 14.6 11.9 9.0 69 2.9 SSE 13 17 7 9 1019.8 1019.8 0.2
21/09:00pm 14.6 11.0 8.3 66 3.2 SSE 17 22 9 12 1020.2 1020.2 0.2
21/08:30pm 14.6 10.9 7.9 64 3.3 S 17 20 9 11 1020.6 1020.6 0.2
21/08:00pm 14.9 11.6 7.9 63 3.5 S 15 19 8 10 1020.7 1020.7 0.2
21/07:30pm 15.2 12.0 8.5 64 3.4 S 15 17 8 9 1020.4 1020.4 0.2
21/07:00pm 16.5 13.1 9.2 62 3.8 S 17 22 9 12 1020.2 1020.2 0.2
21/06:30pm 17.9 15.0 9.6 58 4.4 S 15 22 8 12 1020.1 1020.1 0.2
21/06:00pm 20.0 18.3 9.9 52 5.4 WSW 9 11 5 6 1020.1 1020.1 0.2
21/05:30pm 20.7 19.0 9.7 49 5.9 NW 9 11 5 6 1019.8 1019.8 0.2

Other Formats:

Comma delimited format used in spreadsheet applications
http://www.bom.gov.au/fwo/IDW60801/IDW60801.95611.axf

JavaScript Object Notation format (JSON) in row-major order
http://www.bom.gov.au/fwo/IDW60801/IDW60801.95611.json